Llano Quemado, New Mexico
Current Conditions -  °F | °C
As of 12:55 PM on Thursday 25 Dec 2014 (Local Time) from KSKX Reporting Station
Overcast Overcast  
Wind Chill: 28°   Ceiling: 6000
Heat Index: 36°   Visibility: 10mi
Dew Point: 12°   Wind: 10mph
Humidity: 38%   Direction: 230°SW
Pressure: 29.65"   Gusts: NA
Location:  36.2692°N, 105.543°W
Report Text: KSKX 251955Z AUTO 23009KT 10SM SCT048 BKN060 OVC085 02/M11 A2965 RMK AO1
Loading
Personal Weather Stations






























Interactive Weather Map New forecast layout! Learn more

10-Day Weather Forecast

Advertisements
Track Severe Weather on mobile